sensor_id;sensor_type;location;lat;lon;timestamp;P1;durP1;ratioP1;P2;durP2;ratioP2
19891;SDS011;10108;50.142;8.724;2023-08-12T00:01:55;10.13;;;6.85;;
19891;SDS011;10108;50.142;8.724;2023-08-12T00:04:21;11.80;;;6.90;;
19891;SDS011;10108;50.142;8.724;2023-08-12T00:06:48;18.33;;;6.97;;
19891;SDS011;10108;50.142;8.724;2023-08-12T00:09:14;13.35;;;7.13;;
19891;SDS011;10108;50.142;8.724;2023-08-12T00:11:40;11.98;;;6.93;;
19891;SDS011;10108;50.142;8.724;2023-08-12T00:14:06;13.80;;;7.25;;
19891;SDS011;10108;50.142;8.724;2023-08-12T00:16:32;12.45;;;7.00;;
19891;SDS011;10108;50.142;8.724;2023-08-12T00:18:59;11.70;;;6.65;;
19891;SDS011;10108;50.142;8.724;2023-08-12T00:21:26;12.63;;;6.85;;
19891;SDS011;10108;50.142;8.724;2023-08-12T00:23:52;10.95;;;7.05;;
19891;SDS011;10108;50.142;8.724;2023-08-12T00:26:18;12.57;;;6.75;;
19891;SDS011;10108;50.142;8.724;2023-08-12T00:28:44;11.43;;;7.15;;
19891;SDS011;10108;50.142;8.724;2023-08-12T00:31:10;14.40;;;7.25;;
19891;SDS011;10108;50.142;8.724;2023-08-12T00:33:36;11.43;;;6.70;;
19891;SDS011;10108;50.142;8.724;2023-08-12T00:36:03;12.23;;;7.07;;
19891;SDS011;10108;50.142;8.724;2023-08-12T00:38:29;11.23;;;6.90;;
19891;SDS011;10108;50.142;8.724;2023-08-12T00:40:55;12.50;;;6.88;;
19891;SDS011;10108;50.142;8.724;2023-08-12T00:43:21;13.48;;;7.18;;
19891;SDS011;10108;50.142;8.724;2023-08-12T00:45:47;12.63;;;7.07;;
19891;SDS011;10108;50.142;8.724;2023-08-12T00:48:14;14.70;;;7.22;;
19891;SDS011;10108;50.142;8.724;2023-08-12T00:50:42;11.65;;;6.60;;
19891;SDS011;10108;50.142;8.724;2023-08-12T00:53:09;13.00;;;7.10;;
19891;SDS011;10108;50.142;8.724;2023-08-12T00:55:36;13.13;;;7.30;;
19891;SDS011;10108;50.142;8.724;2023-08-12T00:58:02;11.68;;;7.22;;
19891;SDS011;10108;50.142;8.724;2023-08-12T01:00:29;11.40;;;6.85;;
19891;SDS011;10108;50.142;8.724;2023-08-12T01:02:56;10.60;;;7.07;;
19891;SDS011;10108;50.142;8.724;2023-08-12T01:05:23;11.32;;;6.72;;
19891;SDS011;10108;50.142;8.724;2023-08-12T01:07:49;13.25;;;6.78;;
19891;SDS011;10108;50.142;8.724;2023-08-12T01:10:15;12.75;;;6.78;;
19891;SDS011;10108;50.142;8.724;2023-08-12T01:15:27;11.68;;;6.95;;
19891;SDS011;10108;50.142;8.724;2023-08-12T01:17:54;10.77;;;6.88;;
19891;SDS011;10108;50.142;8.724;2023-08-12T01:20:23;12.63;;;7.07;;
19891;SDS011;10108;50.142;8.724;2023-08-12T01:23:25;11.18;;;7.05;;
19891;SDS011;10108;50.142;8.724;2023-08-12T01:25:46;13.85;;;6.55;;
19891;SDS011;10108;50.142;8.724;2023-08-12T01:28:12;13.32;;;7.90;;
19891;SDS011;10108;50.142;8.724;2023-08-12T01:30:39;11.85;;;7.45;;
19891;SDS011;10108;50.142;8.724;2023-08-12T01:33:22;12.02;;;7.38;;
19891;SDS011;10108;50.142;8.724;2023-08-12T01:36:16;10.98;;;7.15;;
19891;SDS011;10108;50.142;8.724;2023-08-12T01:38:45;13.38;;;7.25;;
19891;SDS011;10108;50.142;8.724;2023-08-12T01:41:13;13.15;;;7.32;;
19891;SDS011;10108;50.142;8.724;2023-08-12T01:43:41;13.75;;;7.97;;
19891;SDS011;10108;50.142;8.724;2023-08-12T01:46:07;12.20;;;7.13;;
19891;SDS011;10108;50.142;8.724;2023-08-12T01:48:35;16.02;;;7.53;;
19891;SDS011;10108;50.142;8.724;2023-08-12T01:51:02;12.10;;;7.22;;
19891;SDS011;10108;50.142;8.724;2023-08-12T01:53:28;10.00;;;6.53;;
19891;SDS011;10108;50.142;8.724;2023-08-12T01:55:54;12.00;;;7.25;;
19891;SDS011;10108;50.142;8.724;2023-08-12T01:58:20;11.23;;;6.85;;
19891;SDS011;10108;50.142;8.724;2023-08-12T02:00:47;10.98;;;7.28;;
19891;SDS011;10108;50.142;8.724;2023-08-12T02:03:13;10.45;;;6.65;;
19891;SDS011;10108;50.142;8.724;2023-08-12T02:05:39;14.13;;;7.10;;
19891;SDS011;10108;50.142;8.724;2023-08-12T02:08:06;9.90;;;6.70;;
19891;SDS011;10108;50.142;8.724;2023-08-12T02:10:34;15.35;;;7.10;;
19891;SDS011;10108;50.142;8.724;2023-08-12T02:13:00;10.90;;;6.32;;
19891;SDS011;10108;50.142;8.724;2023-08-12T02:15:28;11.90;;;7.00;;
19891;SDS011;10108;50.142;8.724;2023-08-12T02:17:54;11.75;;;6.40;;
19891;SDS011;10108;50.142;8.724;2023-08-12T02:20:20;9.95;;;6.50;;
19891;SDS011;10108;50.142;8.724;2023-08-12T02:22:46;12.85;;;6.93;;
19891;SDS011;10108;50.142;8.724;2023-08-12T02:25:13;10.68;;;6.60;;
19891;SDS011;10108;50.142;8.724;2023-08-12T02:27:39;10.75;;;6.68;;
19891;SDS011;10108;50.142;8.724;2023-08-12T02:30:05;10.95;;;6.38;;
19891;SDS011;10108;50.142;8.724;2023-08-12T02:32:32;11.90;;;6.97;;
19891;SDS011;10108;50.142;8.724;2023-08-12T02:34:58;12.00;;;6.50;;
19891;SDS011;10108;50.142;8.724;2023-08-12T02:37:24;10.57;;;6.82;;
19891;SDS011;10108;50.142;8.724;2023-08-12T02:39:50;10.90;;;7.22;;
19891;SDS011;10108;50.142;8.724;2023-08-12T02:42:16;12.52;;;7.25;;
19891;SDS011;10108;50.142;8.724;2023-08-12T02:44:43;12.07;;;7.63;;
19891;SDS011;10108;50.142;8.724;2023-08-12T02:47:09;13.15;;;7.70;;
19891;SDS011;10108;50.142;8.724;2023-08-12T02:49:35;13.40;;;7.55;;
19891;SDS011;10108;50.142;8.724;2023-08-12T02:52:01;10.35;;;7.15;;
19891;SDS011;10108;50.142;8.724;2023-08-12T02:54:28;11.05;;;7.90;;
19891;SDS011;10108;50.142;8.724;2023-08-12T02:56:54;16.23;;;9.18;;
19891;SDS011;10108;50.142;8.724;2023-08-12T02:59:20;14.35;;;9.93;;
19891;SDS011;10108;50.142;8.724;2023-08-12T03:01:46;17.20;;;11.48;;
19891;SDS011;10108;50.142;8.724;2023-08-12T03:04:13;17.98;;;13.70;;
19891;SDS011;10108;50.142;8.724;2023-08-12T03:06:39;22.95;;;15.32;;
19891;SDS011;10108;50.142;8.724;2023-08-12T03:09:05;19.60;;;16.73;;
19891;SDS011;10108;50.142;8.724;2023-08-12T03:11:32;25.75;;;18.40;;
19891;SDS011;10108;50.142;8.724;2023-08-12T03:14:00;19.67;;;17.58;;
19891;SDS011;10108;50.142;8.724;2023-08-12T03:16:27;19.88;;;17.98;;
19891;SDS011;10108;50.142;8.724;2023-08-12T03:18:53;19.20;;;17.30;;
19891;SDS011;10108;50.142;8.724;2023-08-12T03:21:19;19.67;;;17.42;;
19891;SDS011;10108;50.142;8.724;2023-08-12T03:23:46;19.45;;;17.45;;
19891;SDS011;10108;50.142;8.724;2023-08-12T03:26:12;20.52;;;18.60;;
19891;SDS011;10108;50.142;8.724;2023-08-12T03:28:40;22.05;;;18.67;;
19891;SDS011;10108;50.142;8.724;2023-08-12T03:31:08;22.23;;;19.17;;
19891;SDS011;10108;50.142;8.724;2023-08-12T03:33:35;21.35;;;19.15;;
19891;SDS011;10108;50.142;8.724;2023-08-12T03:36:02;23.23;;;19.60;;
19891;SDS011;10108;50.142;8.724;2023-08-12T03:38:28;24.83;;;19.70;;
19891;SDS011;10108;50.142;8.724;2023-08-12T03:40:55;25.20;;;19.88;;
19891;SDS011;10108;50.142;8.724;2023-08-12T03:43:21;23.10;;;20.80;;
19891;SDS011;10108;50.142;8.724;2023-08-12T03:45:49;24.10;;;20.75;;
19891;SDS011;10108;50.142;8.724;2023-08-12T03:48:17;23.27;;;20.98;;
19891;SDS011;10108;50.142;8.724;2023-08-12T03:50:44;24.65;;;22.13;;
19891;SDS011;10108;50.142;8.724;2023-08-12T03:53:12;26.15;;;22.35;;
19891;SDS011;10108;50.142;8.724;2023-08-12T03:55:39;25.85;;;23.25;;
19891;SDS011;10108;50.142;8.724;2023-08-12T03:58:08;26.30;;;23.60;;
19891;SDS011;10108;50.142;8.724;2023-08-12T04:00:34;32.15;;;23.25;;
19891;SDS011;10108;50.142;8.724;2023-08-12T04:03:02;25.30;;;22.55;;
19891;SDS011;10108;50.142;8.724;2023-08-12T04:05:28;23.70;;;21.25;;
19891;SDS011;10108;50.142;8.724;2023-08-12T04:07:54;24.80;;;22.20;;
19891;SDS011;10108;50.142;8.724;2023-08-12T04:10:20;24.38;;;21.92;;
19891;SDS011;10108;50.142;8.724;2023-08-12T04:12:46;26.13;;;22.55;;
19891;SDS011;10108;50.142;8.724;2023-08-12T04:15:13;26.85;;;23.90;;
19891;SDS011;10108;50.142;8.724;2023-08-12T04:17:39;25.65;;;23.15;;
19891;SDS011;10108;50.142;8.724;2023-08-12T04:20:06;26.38;;;23.63;;
19891;SDS011;10108;50.142;8.724;2023-08-12T04:22:35;26.48;;;23.77;;
19891;SDS011;10108;50.142;8.724;2023-08-12T04:25:01;25.33;;;22.88;;
19891;SDS011;10108;50.142;8.724;2023-08-12T04:27:28;27.58;;;24.85;;
19891;SDS011;10108;50.142;8.724;2023-08-12T04:29:55;28.45;;;24.70;;
19891;SDS011;10108;50.142;8.724;2023-08-12T04:32:21;26.27;;;23.52;;
19891;SDS011;10108;50.142;8.724;2023-08-12T04:34:48;25.05;;;22.65;;
19891;SDS011;10108;50.142;8.724;2023-08-12T04:37:15;27.33;;;24.33;;
19891;SDS011;10108;50.142;8.724;2023-08-12T04:39:42;26.15;;;23.33;;
19891;SDS011;10108;50.142;8.724;2023-08-12T04:42:10;27.95;;;23.65;;
19891;SDS011;10108;50.142;8.724;2023-08-12T04:44:37;28.65;;;25.67;;
19891;SDS011;10108;50.142;8.724;2023-08-12T04:47:03;27.63;;;24.80;;
19891;SDS011;10108;50.142;8.724;2023-08-12T04:49:33;29.23;;;25.65;;
19891;SDS011;10108;50.142;8.724;2023-08-12T04:52:00;28.95;;;26.05;;
19891;SDS011;10108;50.142;8.724;2023-08-12T04:54:26;30.25;;;27.00;;
19891;SDS011;10108;50.142;8.724;2023-08-12T04:56:52;32.63;;;27.13;;
19891;SDS011;10108;50.142;8.724;2023-08-12T04:59:20;30.38;;;27.10;;
19891;SDS011;10108;50.142;8.724;2023-08-12T05:01:46;30.05;;;26.85;;
19891;SDS011;10108;50.142;8.724;2023-08-12T05:04:12;29.05;;;25.95;;
19891;SDS011;10108;50.142;8.724;2023-08-12T05:06:38;28.77;;;25.67;;
19891;SDS011;10108;50.142;8.724;2023-08-12T05:09:05;28.98;;;25.92;;
19891;SDS011;10108;50.142;8.724;2023-08-12T05:11:32;33.72;;;27.38;;
19891;SDS011;10108;50.142;8.724;2023-08-12T05:13:58;30.25;;;27.02;;
19891;SDS011;10108;50.142;8.724;2023-08-12T05:16:24;30.50;;;27.50;;
19891;SDS011;10108;50.142;8.724;2023-08-12T05:18:51;28.95;;;25.83;;
19891;SDS011;10108;50.142;8.724;2023-08-12T05:21:17;29.50;;;26.30;;
19891;SDS011;10108;50.142;8.724;2023-08-12T05:23:43;29.00;;;25.30;;
19891;SDS011;10108;50.142;8.724;2023-08-12T05:26:09;29.00;;;26.00;;
19891;SDS011;10108;50.142;8.724;2023-08-12T05:28:35;32.33;;;26.52;;
19891;SDS011;10108;50.142;8.724;2023-08-12T05:31:01;29.63;;;25.50;;
19891;SDS011;10108;50.142;8.724;2023-08-12T05:33:28;29.77;;;26.30;;
19891;SDS011;10108;50.142;8.724;2023-08-12T05:35:54;28.00;;;25.02;;
19891;SDS011;10108;50.142;8.724;2023-08-12T05:38:20;28.48;;;24.65;;
19891;SDS011;10108;50.142;8.724;2023-08-12T05:40:46;25.75;;;22.77;;
19891;SDS011;10108;50.142;8.724;2023-08-12T05:43:13;24.08;;;21.65;;
19891;SDS011;10108;50.142;8.724;2023-08-12T05:45:39;24.45;;;21.58;;
19891;SDS011;10108;50.142;8.724;2023-08-12T05:48:05;23.90;;;21.17;;
19891;SDS011;10108;50.142;8.724;2023-08-12T05:50:31;24.23;;;20.38;;
19891;SDS011;10108;50.142;8.724;2023-08-12T05:52:57;22.85;;;20.65;;
19891;SDS011;10108;50.142;8.724;2023-08-12T05:55:23;22.85;;;20.27;;
19891;SDS011;10108;50.142;8.724;2023-08-12T05:57:50;22.58;;;20.05;;
19891;SDS011;10108;50.142;8.724;2023-08-12T06:00:16;23.10;;;20.60;;
19891;SDS011;10108;50.142;8.724;2023-08-12T06:02:42;24.85;;;20.35;;
19891;SDS011;10108;50.142;8.724;2023-08-12T06:05:08;23.67;;;20.63;;
19891;SDS011;10108;50.142;8.724;2023-08-12T06:07:34;23.15;;;20.73;;
19891;SDS011;10108;50.142;8.724;2023-08-12T06:10:01;25.48;;;21.15;;
19891;SDS011;10108;50.142;8.724;2023-08-12T06:12:27;23.30;;;20.80;;
19891;SDS011;10108;50.142;8.724;2023-08-12T06:14:53;23.17;;;20.73;;
19891;SDS011;10108;50.142;8.724;2023-08-12T06:17:19;26.02;;;21.65;;
19891;SDS011;10108;50.142;8.724;2023-08-12T06:19:46;25.15;;;21.63;;
19891;SDS011;10108;50.142;8.724;2023-08-12T06:22:12;23.73;;;21.23;;
19891;SDS011;10108;50.142;8.724;2023-08-12T06:24:38;26.48;;;21.02;;
19891;SDS011;10108;50.142;8.724;2023-08-12T06:27:05;24.50;;;22.00;;
19891;SDS011;10108;50.142;8.724;2023-08-12T06:29:31;23.08;;;20.67;;
19891;SDS011;10108;50.142;8.724;2023-08-12T06:31:57;26.10;;;21.52;;
19891;SDS011;10108;50.142;8.724;2023-08-12T06:34:23;26.02;;;21.10;;
19891;SDS011;10108;50.142;8.724;2023-08-12T06:36:49;23.83;;;21.38;;
19891;SDS011;10108;50.142;8.724;2023-08-12T06:39:15;25.95;;;22.33;;
19891;SDS011;10108;50.142;8.724;2023-08-12T06:41:41;23.05;;;20.65;;
19891;SDS011;10108;50.142;8.724;2023-08-12T06:44:09;25.70;;;22.75;;
19891;SDS011;10108;50.142;8.724;2023-08-12T06:46:35;24.67;;;21.13;;
19891;SDS011;10108;50.142;8.724;2023-08-12T06:49:01;23.38;;;20.90;;
19891;SDS011;10108;50.142;8.724;2023-08-12T06:51:27;22.80;;;20.40;;
19891;SDS011;10108;50.142;8.724;2023-08-12T06:53:53;25.45;;;21.73;;
19891;SDS011;10108;50.142;8.724;2023-08-12T06:56:19;22.05;;;19.85;;
19891;SDS011;10108;50.142;8.724;2023-08-12T06:58:46;23.20;;;20.73;;
19891;SDS011;10108;50.142;8.724;2023-08-12T07:01:12;23.38;;;20.88;;
19891;SDS011;10108;50.142;8.724;2023-08-12T07:03:38;22.90;;;20.27;;
19891;SDS011;10108;50.142;8.724;2023-08-12T07:06:04;21.83;;;19.52;;
19891;SDS011;10108;50.142;8.724;2023-08-12T07:08:30;22.25;;;19.77;;
19891;SDS011;10108;50.142;8.724;2023-08-12T07:10:57;23.60;;;20.23;;
19891;SDS011;10108;50.142;8.724;2023-08-12T07:13:24;24.13;;;21.08;;
19891;SDS011;10108;50.142;8.724;2023-08-12T07:15:50;22.40;;;20.00;;
19891;SDS011;10108;50.142;8.724;2023-08-12T07:18:16;23.85;;;21.35;;
19891;SDS011;10108;50.142;8.724;2023-08-12T07:20:42;23.25;;;20.85;;
19891;SDS011;10108;50.142;8.724;2023-08-12T07:23:08;23.58;;;20.92;;
19891;SDS011;10108;50.142;8.724;2023-08-12T07:25:34;22.42;;;19.95;;
19891;SDS011;10108;50.142;8.724;2023-08-12T07:28:01;23.73;;;20.13;;
19891;SDS011;10108;50.142;8.724;2023-08-12T07:30:27;22.52;;;20.23;;
19891;SDS011;10108;50.142;8.724;2023-08-12T07:32:53;25.10;;;21.30;;
19891;SDS011;10108;50.142;8.724;2023-08-12T07:35:19;20.08;;;17.90;;
19891;SDS011;10108;50.142;8.724;2023-08-12T07:37:45;20.50;;;18.30;;
19891;SDS011;10108;50.142;8.724;2023-08-12T07:40:11;20.42;;;18.30;;
19891;SDS011;10108;50.142;8.724;2023-08-12T07:42:38;20.52;;;18.42;;
19891;SDS011;10108;50.142;8.724;2023-08-12T07:45:04;21.02;;;18.90;;
19891;SDS011;10108;50.142;8.724;2023-08-12T07:47:31;21.30;;;19.10;;
19891;SDS011;10108;50.142;8.724;2023-08-12T07:49:57;19.77;;;17.63;;
19891;SDS011;10108;50.142;8.724;2023-08-12T07:52:23;19.70;;;17.70;;
19891;SDS011;10108;50.142;8.724;2023-08-12T07:54:49;19.83;;;17.80;;
19891;SDS011;10108;50.142;8.724;2023-08-12T07:57:16;20.30;;;17.20;;
19891;SDS011;10108;50.142;8.724;2023-08-12T07:59:42;21.15;;;18.00;;
19891;SDS011;10108;50.142;8.724;2023-08-12T08:02:08;20.23;;;17.88;;
19891;SDS011;10108;50.142;8.724;2023-08-12T08:04:34;21.02;;;18.83;;
19891;SDS011;10108;50.142;8.724;2023-08-12T08:07:01;20.73;;;18.45;;
19891;SDS011;10108;50.142;8.724;2023-08-12T08:09:27;21.42;;;18.17;;
19891;SDS011;10108;50.142;8.724;2023-08-12T08:11:53;18.58;;;16.67;;
19891;SDS011;10108;50.142;8.724;2023-08-12T08:14:19;17.38;;;15.38;;
19891;SDS011;10108;50.142;8.724;2023-08-12T08:16:45;16.75;;;14.40;;
19891;SDS011;10108;50.142;8.724;2023-08-12T08:19:11;16.27;;;14.68;;
19891;SDS011;10108;50.142;8.724;2023-08-12T08:21:37;17.15;;;14.90;;
19891;SDS011;10108;50.142;8.724;2023-08-12T08:24:04;16.38;;;13.63;;
19891;SDS011;10108;50.142;8.724;2023-08-12T08:26:30;16.45;;;14.05;;
19891;SDS011;10108;50.142;8.724;2023-08-12T08:28:56;16.10;;;14.50;;
19891;SDS011;10108;50.142;8.724;2023-08-12T08:31:22;17.95;;;14.20;;
19891;SDS011;10108;50.142;8.724;2023-08-12T08:33:48;15.30;;;13.70;;
19891;SDS011;10108;50.142;8.724;2023-08-12T08:36:14;15.65;;;13.63;;
19891;SDS011;10108;50.142;8.724;2023-08-12T08:38:42;15.27;;;13.48;;
19891;SDS011;10108;50.142;8.724;2023-08-12T08:41:08;15.18;;;13.30;;
19891;SDS011;10108;50.142;8.724;2023-08-12T08:43:36;14.40;;;12.90;;
19891;SDS011;10108;50.142;8.724;2023-08-12T08:46:04;14.02;;;12.35;;
19891;SDS011;10108;50.142;8.724;2023-08-12T08:48:32;13.98;;;12.07;;
19891;SDS011;10108;50.142;8.724;2023-08-12T08:50:59;13.20;;;11.80;;
19891;SDS011;10108;50.142;8.724;2023-08-12T08:53:26;14.18;;;12.48;;
19891;SDS011;10108;50.142;8.724;2023-08-12T08:55:52;13.05;;;11.70;;
19891;SDS011;10108;50.142;8.724;2023-08-12T08:58:20;12.50;;;11.20;;
19891;SDS011;10108;50.142;8.724;2023-08-12T09:00:46;13.25;;;11.23;;
19891;SDS011;10108;50.142;8.724;2023-08-12T09:03:13;14.25;;;11.98;;
19891;SDS011;10108;50.142;8.724;2023-08-12T09:05:40;15.15;;;13.55;;
19891;SDS011;10108;50.142;8.724;2023-08-12T09:08:08;14.02;;;12.52;;
19891;SDS011;10108;50.142;8.724;2023-08-12T09:10:36;12.10;;;10.90;;
19891;SDS011;10108;50.142;8.724;2023-08-12T09:13:06;15.85;;;13.45;;
19891;SDS011;10108;50.142;8.724;2023-08-12T09:15:32;16.15;;;13.95;;
19891;SDS011;10108;50.142;8.724;2023-08-12T09:17:58;17.20;;;14.23;;
19891;SDS011;10108;50.142;8.724;2023-08-12T09:20:24;17.30;;;14.27;;
19891;SDS011;10108;50.142;8.724;2023-08-12T09:22:57;15.50;;;12.65;;
19891;SDS011;10108;50.142;8.724;2023-08-12T09:25:25;14.48;;;12.90;;
19891;SDS011;10108;50.142;8.724;2023-08-12T09:28:00;16.33;;;13.15;;
19891;SDS011;10108;50.142;8.724;2023-08-12T09:30:30;14.77;;;12.95;;
19891;SDS011;10108;50.142;8.724;2023-08-12T09:33:03;14.88;;;13.18;;
19891;SDS011;10108;50.142;8.724;2023-08-12T09:35:36;13.57;;;12.18;;
19891;SDS011;10108;50.142;8.724;2023-08-12T09:38:04;12.10;;;10.57;;
19891;SDS011;10108;50.142;8.724;2023-08-12T09:40:32;11.80;;;9.98;;
19891;SDS011;10108;50.142;8.724;2023-08-12T09:42:59;11.63;;;9.68;;
19891;SDS011;10108;50.142;8.724;2023-08-12T09:45:26;10.90;;;9.77;;
19891;SDS011;10108;50.142;8.724;2023-08-12T09:47:56;10.73;;;8.95;;
19891;SDS011;10108;50.142;8.724;2023-08-12T09:50:23;10.95;;;9.13;;
19891;SDS011;10108;50.142;8.724;2023-08-12T09:52:53;13.32;;;9.73;;
19891;SDS011;10108;50.142;8.724;2023-08-12T09:55:22;10.00;;;8.93;;
19891;SDS011;10108;50.142;8.724;2023-08-12T09:57:53;12.25;;;8.85;;
19891;SDS011;10108;50.142;8.724;2023-08-12T10:00:21;12.52;;;9.35;;
19891;SDS011;10108;50.142;8.724;2023-08-12T10:02:50;11.15;;;9.25;;
19891;SDS011;10108;50.142;8.724;2023-08-12T10:05:31;10.82;;;9.43;;
19891;SDS011;10108;50.142;8.724;2023-08-12T10:07:58;10.38;;;9.25;;
19891;SDS011;10108;50.142;8.724;2023-08-12T10:10:27;12.18;;;9.15;;
19891;SDS011;10108;50.142;8.724;2023-08-12T10:12:54;14.65;;;9.35;;
19891;SDS011;10108;50.142;8.724;2023-08-12T10:15:20;9.60;;;8.60;;
19891;SDS011;10108;50.142;8.724;2023-08-12T10:17:48;11.68;;;9.10;;
19891;SDS011;10108;50.142;8.724;2023-08-12T10:20:20;10.07;;;8.80;;
19891;SDS011;10108;50.142;8.724;2023-08-12T10:22:48;13.00;;;10.20;;
19891;SDS011;10108;50.142;8.724;2023-08-12T10:25:15;13.77;;;11.63;;
19891;SDS011;10108;50.142;8.724;2023-08-12T10:27:43;11.80;;;9.75;;
19891;SDS011;10108;50.142;8.724;2023-08-12T10:30:09;10.93;;;9.65;;
19891;SDS011;10108;50.142;8.724;2023-08-12T10:32:36;10.30;;;9.10;;
19891;SDS011;10108;50.142;8.724;2023-08-12T10:35:02;9.75;;;8.75;;
19891;SDS011;10108;50.142;8.724;2023-08-12T10:37:31;15.98;;;14.27;;
19891;SDS011;10108;50.142;8.724;2023-08-12T10:40:02;18.08;;;16.00;;
19891;SDS011;10108;50.142;8.724;2023-08-12T10:45:07;18.23;;;16.50;;
19891;SDS011;10108;50.142;8.724;2023-08-12T10:47:39;23.63;;;21.23;;
19891;SDS011;10108;50.142;8.724;2023-08-12T10:50:42;29.77;;;22.33;;
19891;SDS011;10108;50.142;8.724;2023-08-12T10:52:58;25.00;;;22.35;;
19891;SDS011;10108;50.142;8.724;2023-08-12T10:55:47;24.88;;;22.48;;
19891;SDS011;10108;50.142;8.724;2023-08-12T10:58:57;26.10;;;23.13;;
19891;SDS011;10108;50.142;8.724;2023-08-12T11:01:16;23.10;;;20.42;;
19891;SDS011;10108;50.142;8.724;2023-08-12T11:03:44;21.83;;;19.45;;
19891;SDS011;10108;50.142;8.724;2023-08-12T11:06:10;22.92;;;20.38;;
19891;SDS011;10108;50.142;8.724;2023-08-12T11:08:46;21.70;;;19.60;;
19891;SDS011;10108;50.142;8.724;2023-08-12T11:11:19;23.13;;;20.73;;
19891;SDS011;10108;50.142;8.724;2023-08-12T11:13:52;23.15;;;20.73;;
19891;SDS011;10108;50.142;8.724;2023-08-12T11:16:20;26.20;;;23.38;;
19891;SDS011;10108;50.142;8.724;2023-08-12T11:19:03;25.83;;;21.17;;
19891;SDS011;10108;50.142;8.724;2023-08-12T11:21:30;26.67;;;21.35;;
19891;SDS011;10108;50.142;8.724;2023-08-12T11:23:56;25.38;;;22.35;;
19891;SDS011;10108;50.142;8.724;2023-08-12T11:26:23;24.92;;;22.52;;
19891;SDS011;10108;50.142;8.724;2023-08-12T11:28:50;27.95;;;23.30;;
19891;SDS011;10108;50.142;8.724;2023-08-12T11:31:16;25.27;;;22.67;;
19891;SDS011;10108;50.142;8.724;2023-08-12T11:33:44;24.02;;;21.35;;
19891;SDS011;10108;50.142;8.724;2023-08-12T11:36:10;23.85;;;21.15;;
19891;SDS011;10108;50.142;8.724;2023-08-12T11:38:37;23.58;;;21.00;;
19891;SDS011;10108;50.142;8.724;2023-08-12T11:41:03;24.70;;;21.80;;
19891;SDS011;10108;50.142;8.724;2023-08-12T11:43:31;23.48;;;21.08;;
19891;SDS011;10108;50.142;8.724;2023-08-12T11:45:58;24.05;;;20.25;;
19891;SDS011;10108;50.142;8.724;2023-08-12T11:48:27;22.63;;;20.23;;
19891;SDS011;10108;50.142;8.724;2023-08-12T11:50:53;22.63;;;20.35;;
19891;SDS011;10108;50.142;8.724;2023-08-12T11:53:20;26.88;;;22.23;;
19891;SDS011;10108;50.142;8.724;2023-08-12T11:55:46;24.50;;;22.00;;
19891;SDS011;10108;50.142;8.724;2023-08-12T11:58:13;21.10;;;19.02;;
19891;SDS011;10108;50.142;8.724;2023-08-12T12:00:44;21.50;;;19.30;;
19891;SDS011;10108;50.142;8.724;2023-08-12T12:03:12;25.38;;;22.83;;
19891;SDS011;10108;50.142;8.724;2023-08-12T12:05:38;23.90;;;21.38;;
19891;SDS011;10108;50.142;8.724;2023-08-12T12:08:05;22.38;;;20.23;;
19891;SDS011;10108;50.142;8.724;2023-08-12T12:10:34;22.33;;;20.17;;
19891;SDS011;10108;50.142;8.724;2023-08-12T12:13:02;23.70;;;21.23;;
19891;SDS011;10108;50.142;8.724;2023-08-12T12:15:30;24.48;;;21.85;;
19891;SDS011;10108;50.142;8.724;2023-08-12T12:17:57;23.65;;;20.23;;
19891;SDS011;10108;50.142;8.724;2023-08-12T12:20:24;22.45;;;20.15;;
19891;SDS011;10108;50.142;8.724;2023-08-12T12:22:52;20.30;;;18.30;;
19891;SDS011;10108;50.142;8.724;2023-08-12T12:25:18;20.42;;;18.30;;
19891;SDS011;10108;50.142;8.724;2023-08-12T12:27:45;18.63;;;16.73;;
19891;SDS011;10108;50.142;8.724;2023-08-12T12:30:12;17.00;;;15.38;;
19891;SDS011;10108;50.142;8.724;2023-08-12T12:32:39;17.45;;;15.77;;
19891;SDS011;10108;50.142;8.724;2023-08-12T12:35:05;17.20;;;15.50;;
19891;SDS011;10108;50.142;8.724;2023-08-12T12:37:35;17.50;;;15.80;;
19891;SDS011;10108;50.142;8.724;2023-08-12T12:40:02;15.68;;;14.18;;
19891;SDS011;10108;50.142;8.724;2023-08-12T12:42:29;16.80;;;15.25;;
19891;SDS011;10108;50.142;8.724;2023-08-12T12:44:56;17.00;;;15.00;;
19891;SDS011;10108;50.142;8.724;2023-08-12T12:47:22;16.25;;;14.75;;
19891;SDS011;10108;50.142;8.724;2023-08-12T12:49:48;15.65;;;14.02;;
19891;SDS011;10108;50.142;8.724;2023-08-12T12:52:14;15.38;;;14.00;;
19891;SDS011;10108;50.142;8.724;2023-08-12T12:54:40;16.35;;;14.77;;
19891;SDS011;10108;50.142;8.724;2023-08-12T12:57:06;14.73;;;13.32;;
19891;SDS011;10108;50.142;8.724;2023-08-12T12:59:32;14.68;;;13.27;;
19891;SDS011;10108;50.142;8.724;2023-08-12T13:01:59;15.10;;;13.60;;
19891;SDS011;10108;50.142;8.724;2023-08-12T13:04:27;15.63;;;13.82;;
19891;SDS011;10108;50.142;8.724;2023-08-12T13:06:54;14.50;;;13.20;;
19891;SDS011;10108;50.142;8.724;2023-08-12T13:09:20;15.02;;;13.45;;
19891;SDS011;10108;50.142;8.724;2023-08-12T13:11:46;13.90;;;12.52;;
19891;SDS011;10108;50.142;8.724;2023-08-12T13:14:12;13.52;;;12.13;;
19891;SDS011;10108;50.142;8.724;2023-08-12T13:16:38;13.75;;;12.18;;
19891;SDS011;10108;50.142;8.724;2023-08-12T13:19:04;14.73;;;12.20;;
19891;SDS011;10108;50.142;8.724;2023-08-12T13:21:31;13.65;;;12.20;;
19891;SDS011;10108;50.142;8.724;2023-08-12T13:23:58;13.05;;;11.50;;
19891;SDS011;10108;50.142;8.724;2023-08-12T13:26:24;12.40;;;11.10;;
19891;SDS011;10108;50.142;8.724;2023-08-12T13:28:50;11.95;;;10.75;;
19891;SDS011;10108;50.142;8.724;2023-08-12T13:31:16;12.80;;;10.95;;
19891;SDS011;10108;50.142;8.724;2023-08-12T13:33:42;11.30;;;10.13;;
19891;SDS011;10108;50.142;8.724;2023-08-12T13:36:09;13.77;;;10.93;;
19891;SDS011;10108;50.142;8.724;2023-08-12T13:38:35;10.82;;;9.68;;
19891;SDS011;10108;50.142;8.724;2023-08-12T13:41:01;12.27;;;9.73;;
19891;SDS011;10108;50.142;8.724;2023-08-12T13:43:27;13.63;;;11.00;;
19891;SDS011;10108;50.142;8.724;2023-08-12T13:45:53;15.63;;;10.93;;
19891;SDS011;10108;50.142;8.724;2023-08-12T13:48:19;16.95;;;10.23;;
19891;SDS011;10108;50.142;8.724;2023-08-12T13:50:45;13.32;;;9.77;;
19891;SDS011;10108;50.142;8.724;2023-08-12T13:53:15;13.77;;;10.02;;
19891;SDS011;10108;50.142;8.724;2023-08-12T13:55:41;17.33;;;10.13;;
19891;SDS011;10108;50.142;8.724;2023-08-12T13:58:08;11.75;;;9.60;;
19891;SDS011;10108;50.142;8.724;2023-08-12T14:00:34;10.43;;;9.05;;
19891;SDS011;10108;50.142;8.724;2023-08-12T14:03:00;12.95;;;8.82;;
19891;SDS011;10108;50.142;8.724;2023-08-12T14:05:26;15.65;;;9.40;;
19891;SDS011;10108;50.142;8.724;2023-08-12T14:07:52;19.73;;;9.52;;
19891;SDS011;10108;50.142;8.724;2023-08-12T14:10:18;19.70;;;9.73;;
19891;SDS011;10108;50.142;8.724;2023-08-12T14:12:45;18.92;;;9.52;;
19891;SDS011;10108;50.142;8.724;2023-08-12T14:15:13;17.63;;;9.70;;
19891;SDS011;10108;50.142;8.724;2023-08-12T14:17:40;17.00;;;9.85;;
19891;SDS011;10108;50.142;8.724;2023-08-12T14:20:06;20.70;;;10.15;;
19891;SDS011;10108;50.142;8.724;2023-08-12T14:22:36;14.63;;;10.18;;
19891;SDS011;10108;50.142;8.724;2023-08-12T14:25:02;14.38;;;9.48;;
19891;SDS011;10108;50.142;8.724;2023-08-12T14:27:29;15.25;;;9.20;;
19891;SDS011;10108;50.142;8.724;2023-08-12T14:29:56;14.45;;;8.77;;
19891;SDS011;10108;50.142;8.724;2023-08-12T14:32:22;12.68;;;8.75;;